Other Surface Observations
Issued by NWS Great Falls, MT

Home | Current Version | Previous Version | Text Only | Print | Product List | Glossary On
Versions: 1 2 3 4 5 6 7 8 9 10 11 12 13 14 15 16 17 18 19 20 21 22 23 24 25 26 27 28 29 30 31 32 33 34 35 36 37 38 39 40 41 42 43 44 45 46 47 48 49 50
000
SXUS55 KTFX 100707
OSOTFX

AREA AWOS OBSERVATIONS
NATIONAL WEATHER SERVICE GREAT FALLS MT
1206 AM MST Sat Dec 10 2016

METAR K6S8 100655Z AUTO 34003KT 2 1/2SM M14/M19 A3001 RMK A01 T11441194
METAR K6S8 100555Z AUTO 34004KT 1SM M14/M19 A3003 RMK A01 T11441194
METAR K7S0 100655Z AUTO 19000KT 2 1/2SM M11/M14 A2998 RMK A01 T11111138
METAR K7S1 100655Z AUTO 32000KT 15SM M10/M14 A2990 RMK A01 T11001144
METAR K9S5 100655Z AUTO 16000KT 7SM M12/M33 A2995 RMK A01 T11161327
METAR KS34 100655Z AUTO 06000KT 3SM M09/M13 A3001 RMK A01 T10941133
METAR KTHM 100655Z AUTO 08007KT 3SM M09/M11 A3002 RMK A01 T10881111



USA.gov is the U.S. government's official web portal to all federal, state and local government web resources and services.